• images/banner/banner1.jpg
  • images/banner/banner2.jpg

Team Member Login

Aviation Weather

[source: ADDS]
METAR
EGVN 131750Z 08006KT CAVOK 01/M03 Q1018 BLU NOSIG =
TAF EGVN 131622Z 1318/1418 09008KT 9999 FEW026 PROB30 1405/1409 5000 BR MIFG
TAF
TAF EGVN 131622Z 1318/1418 09008KT 9999 FEW026 PROB30 1405/1409 5000 BR MIFG =